sensor_id;sensor_type;location;lat;lon;timestamp;P1;durP1;ratioP1;P2;durP2;ratioP2
72573;SDS011;60603;52.548;13.420;2023-05-20T00:01:29;5.55;;;2.33;;
72573;SDS011;60603;52.548;13.420;2023-05-20T00:03:55;4.97;;;2.42;;
72573;SDS011;60603;52.548;13.420;2023-05-20T00:06:21;6.30;;;2.50;;
72573;SDS011;60603;52.548;13.420;2023-05-20T00:08:48;6.30;;;2.75;;
72573;SDS011;60603;52.548;13.420;2023-05-20T00:11:16;7.80;;;2.65;;
72573;SDS011;60603;52.548;13.420;2023-05-20T00:13:42;6.00;;;2.40;;
72573;SDS011;60603;52.548;13.420;2023-05-20T00:16:07;5.53;;;2.40;;
72573;SDS011;60603;52.548;13.420;2023-05-20T00:18:33;6.00;;;2.35;;
72573;SDS011;60603;52.548;13.420;2023-05-20T00:20:59;6.35;;;2.75;;
72573;SDS011;60603;52.548;13.420;2023-05-20T00:23:25;5.80;;;2.55;;
72573;SDS011;60603;52.548;13.420;2023-05-20T00:25:50;5.88;;;2.45;;
72573;SDS011;60603;52.548;13.420;2023-05-20T00:28:16;5.88;;;2.55;;
72573;SDS011;60603;52.548;13.420;2023-05-20T00:30:41;4.85;;;2.38;;
72573;SDS011;60603;52.548;13.420;2023-05-20T00:33:07;5.07;;;2.33;;
72573;SDS011;60603;52.548;13.420;2023-05-20T00:35:33;6.03;;;2.60;;
72573;SDS011;60603;52.548;13.420;2023-05-20T00:37:59;6.03;;;2.80;;
72573;SDS011;60603;52.548;13.420;2023-05-20T00:40:24;6.32;;;2.45;;
72573;SDS011;60603;52.548;13.420;2023-05-20T00:42:50;5.97;;;2.80;;
72573;SDS011;60603;52.548;13.420;2023-05-20T00:45:16;5.93;;;2.80;;
72573;SDS011;60603;52.548;13.420;2023-05-20T00:47:42;6.20;;;2.50;;
72573;SDS011;60603;52.548;13.420;2023-05-20T00:50:08;6.70;;;3.35;;
72573;SDS011;60603;52.548;13.420;2023-05-20T00:52:35;7.75;;;3.10;;
72573;SDS011;60603;52.548;13.420;2023-05-20T00:55:01;6.88;;;2.90;;
72573;SDS011;60603;52.548;13.420;2023-05-20T00:57:28;6.13;;;2.65;;
72573;SDS011;60603;52.548;13.420;2023-05-20T00:59:54;6.07;;;3.00;;
72573;SDS011;60603;52.548;13.420;2023-05-20T01:02:20;4.65;;;2.17;;
72573;SDS011;60603;52.548;13.420;2023-05-20T01:04:45;7.38;;;3.53;;
72573;SDS011;60603;52.548;13.420;2023-05-20T01:07:12;5.45;;;3.00;;
72573;SDS011;60603;52.548;13.420;2023-05-20T01:09:39;6.95;;;2.95;;
72573;SDS011;60603;52.548;13.420;2023-05-20T01:12:09;4.65;;;2.47;;
72573;SDS011;60603;52.548;13.420;2023-05-20T01:14:42;6.85;;;2.97;;
72573;SDS011;60603;52.548;13.420;2023-05-20T01:17:14;8.25;;;2.78;;
72573;SDS011;60603;52.548;13.420;2023-05-20T01:19:42;5.85;;;2.38;;
72573;SDS011;60603;52.548;13.420;2023-05-20T01:22:10;11.93;;;3.72;;
72573;SDS011;60603;52.548;13.420;2023-05-20T01:24:44;6.47;;;2.95;;
72573;SDS011;60603;52.548;13.420;2023-05-20T01:27:13;8.52;;;3.22;;
72573;SDS011;60603;52.548;13.420;2023-05-20T01:29:39;6.55;;;2.55;;
72573;SDS011;60603;52.548;13.420;2023-05-20T01:32:06;5.90;;;2.80;;
72573;SDS011;60603;52.548;13.420;2023-05-20T01:34:35;5.97;;;2.85;;
72573;SDS011;60603;52.548;13.420;2023-05-20T01:37:02;5.70;;;2.80;;
72573;SDS011;60603;52.548;13.420;2023-05-20T01:39:29;7.22;;;3.20;;
72573;SDS011;60603;52.548;13.420;2023-05-20T01:41:56;5.10;;;2.80;;
72573;SDS011;60603;52.548;13.420;2023-05-20T01:44:22;6.88;;;3.03;;
72573;SDS011;60603;52.548;13.420;2023-05-20T01:46:48;9.40;;;2.58;;
72573;SDS011;60603;52.548;13.420;2023-05-20T01:49:14;6.10;;;2.92;;
72573;SDS011;60603;52.548;13.420;2023-05-20T01:51:40;6.80;;;3.13;;
72573;SDS011;60603;52.548;13.420;2023-05-20T01:54:06;7.45;;;2.72;;
72573;SDS011;60603;52.548;13.420;2023-05-20T01:56:32;8.55;;;3.47;;
72573;SDS011;60603;52.548;13.420;2023-05-20T01:58:57;5.90;;;2.80;;
72573;SDS011;60603;52.548;13.420;2023-05-20T02:01:23;6.65;;;3.17;;
72573;SDS011;60603;52.548;13.420;2023-05-20T02:03:48;6.57;;;3.10;;
72573;SDS011;60603;52.548;13.420;2023-05-20T02:06:14;5.97;;;3.05;;
72573;SDS011;60603;52.548;13.420;2023-05-20T02:08:40;6.35;;;2.83;;
72573;SDS011;60603;52.548;13.420;2023-05-20T02:11:06;7.32;;;2.75;;
72573;SDS011;60603;52.548;13.420;2023-05-20T02:13:31;5.40;;;2.78;;
72573;SDS011;60603;52.548;13.420;2023-05-20T02:15:57;5.72;;;2.85;;
72573;SDS011;60603;52.548;13.420;2023-05-20T02:18:23;9.00;;;2.83;;
72573;SDS011;60603;52.548;13.420;2023-05-20T02:20:51;5.00;;;2.90;;
72573;SDS011;60603;52.548;13.420;2023-05-20T02:23:16;6.10;;;2.67;;
72573;SDS011;60603;52.548;13.420;2023-05-20T02:25:42;7.88;;;2.97;;
72573;SDS011;60603;52.548;13.420;2023-05-20T02:28:08;6.68;;;3.10;;
72573;SDS011;60603;52.548;13.420;2023-05-20T02:30:36;7.38;;;3.28;;
72573;SDS011;60603;52.548;13.420;2023-05-20T02:33:02;6.45;;;2.80;;
72573;SDS011;60603;52.548;13.420;2023-05-20T02:35:28;6.65;;;3.00;;
72573;SDS011;60603;52.548;13.420;2023-05-20T02:37:53;5.80;;;2.83;;
72573;SDS011;60603;52.548;13.420;2023-05-20T02:40:19;6.68;;;2.80;;
72573;SDS011;60603;52.548;13.420;2023-05-20T02:42:45;6.07;;;2.67;;
72573;SDS011;60603;52.548;13.420;2023-05-20T02:45:11;5.97;;;3.13;;
72573;SDS011;60603;52.548;13.420;2023-05-20T02:47:36;7.30;;;3.13;;
72573;SDS011;60603;52.548;13.420;2023-05-20T02:50:02;7.13;;;2.83;;
72573;SDS011;60603;52.548;13.420;2023-05-20T02:52:28;6.68;;;3.08;;
72573;SDS011;60603;52.548;13.420;2023-05-20T02:54:54;9.05;;;3.38;;
72573;SDS011;60603;52.548;13.420;2023-05-20T02:57:20;5.93;;;3.03;;
72573;SDS011;60603;52.548;13.420;2023-05-20T02:59:46;6.13;;;2.85;;
72573;SDS011;60603;52.548;13.420;2023-05-20T03:02:12;5.68;;;2.85;;
72573;SDS011;60603;52.548;13.420;2023-05-20T03:04:38;6.82;;;3.10;;
72573;SDS011;60603;52.548;13.420;2023-05-20T03:07:05;7.43;;;3.45;;
72573;SDS011;60603;52.548;13.420;2023-05-20T03:09:34;7.07;;;3.50;;
72573;SDS011;60603;52.548;13.420;2023-05-20T03:12:00;7.22;;;3.78;;
72573;SDS011;60603;52.548;13.420;2023-05-20T03:14:25;7.97;;;3.30;;
72573;SDS011;60603;52.548;13.420;2023-05-20T03:16:52;7.90;;;2.95;;
72573;SDS011;60603;52.548;13.420;2023-05-20T03:19:20;6.75;;;3.00;;
72573;SDS011;60603;52.548;13.420;2023-05-20T03:21:46;7.13;;;3.33;;
72573;SDS011;60603;52.548;13.420;2023-05-20T03:24:12;5.82;;;3.05;;
72573;SDS011;60603;52.548;13.420;2023-05-20T03:26:37;7.43;;;2.75;;
72573;SDS011;60603;52.548;13.420;2023-05-20T03:29:07;8.75;;;3.10;;
72573;SDS011;60603;52.548;13.420;2023-05-20T03:31:33;5.75;;;2.70;;
72573;SDS011;60603;52.548;13.420;2023-05-20T03:33:59;5.65;;;2.88;;
72573;SDS011;60603;52.548;13.420;2023-05-20T03:36:25;8.65;;;3.30;;
72573;SDS011;60603;52.548;13.420;2023-05-20T03:38:51;5.70;;;3.10;;
72573;SDS011;60603;52.548;13.420;2023-05-20T03:41:16;5.75;;;2.60;;
72573;SDS011;60603;52.548;13.420;2023-05-20T03:43:42;5.85;;;3.15;;
72573;SDS011;60603;52.548;13.420;2023-05-20T03:46:08;7.55;;;2.85;;
72573;SDS011;60603;52.548;13.420;2023-05-20T03:48:33;5.32;;;2.65;;
72573;SDS011;60603;52.548;13.420;2023-05-20T03:50:59;8.32;;;3.22;;
72573;SDS011;60603;52.548;13.420;2023-05-20T03:53:26;7.68;;;3.45;;
72573;SDS011;60603;52.548;13.420;2023-05-20T03:55:52;7.70;;;2.85;;
72573;SDS011;60603;52.548;13.420;2023-05-20T03:58:17;8.48;;;3.20;;
72573;SDS011;60603;52.548;13.420;2023-05-20T04:00:46;8.13;;;2.72;;
72573;SDS011;60603;52.548;13.420;2023-05-20T04:03:13;7.05;;;2.95;;
72573;SDS011;60603;52.548;13.420;2023-05-20T04:05:39;14.20;;;3.20;;
72573;SDS011;60603;52.548;13.420;2023-05-20T04:08:04;5.97;;;3.03;;
72573;SDS011;60603;52.548;13.420;2023-05-20T04:10:30;8.85;;;3.38;;
72573;SDS011;60603;52.548;13.420;2023-05-20T04:12:58;6.53;;;2.85;;
72573;SDS011;60603;52.548;13.420;2023-05-20T04:15:24;8.82;;;3.40;;
72573;SDS011;60603;52.548;13.420;2023-05-20T04:17:50;7.82;;;2.88;;
72573;SDS011;60603;52.548;13.420;2023-05-20T04:20:17;6.13;;;3.08;;
72573;SDS011;60603;52.548;13.420;2023-05-20T04:22:45;7.85;;;3.55;;
72573;SDS011;60603;52.548;13.420;2023-05-20T04:25:12;8.18;;;3.15;;
72573;SDS011;60603;52.548;13.420;2023-05-20T04:27:38;6.75;;;3.00;;
72573;SDS011;60603;52.548;13.420;2023-05-20T04:30:04;5.43;;;2.97;;
72573;SDS011;60603;52.548;13.420;2023-05-20T04:32:31;6.45;;;2.63;;
72573;SDS011;60603;52.548;13.420;2023-05-20T04:34:58;6.72;;;2.95;;
72573;SDS011;60603;52.548;13.420;2023-05-20T04:37:26;8.93;;;3.63;;
72573;SDS011;60603;52.548;13.420;2023-05-20T04:39:52;8.05;;;3.20;;
72573;SDS011;60603;52.548;13.420;2023-05-20T04:42:18;5.93;;;2.67;;
72573;SDS011;60603;52.548;13.420;2023-05-20T04:44:46;7.00;;;2.80;;
72573;SDS011;60603;52.548;13.420;2023-05-20T04:47:12;7.57;;;3.10;;
72573;SDS011;60603;52.548;13.420;2023-05-20T04:49:39;6.75;;;2.83;;
72573;SDS011;60603;52.548;13.420;2023-05-20T04:52:04;8.32;;;2.90;;
72573;SDS011;60603;52.548;13.420;2023-05-20T04:54:31;10.23;;;3.10;;
72573;SDS011;60603;52.548;13.420;2023-05-20T04:56:57;6.78;;;3.05;;
72573;SDS011;60603;52.548;13.420;2023-05-20T04:59:23;7.03;;;3.00;;
72573;SDS011;60603;52.548;13.420;2023-05-20T05:01:49;7.28;;;3.42;;
72573;SDS011;60603;52.548;13.420;2023-05-20T05:04:15;8.75;;;3.65;;
72573;SDS011;60603;52.548;13.420;2023-05-20T05:06:40;8.90;;;4.07;;
72573;SDS011;60603;52.548;13.420;2023-05-20T05:09:06;6.80;;;3.45;;
72573;SDS011;60603;52.548;13.420;2023-05-20T05:11:32;6.60;;;3.05;;
72573;SDS011;60603;52.548;13.420;2023-05-20T05:13:58;9.00;;;3.78;;
72573;SDS011;60603;52.548;13.420;2023-05-20T05:16:24;7.82;;;3.10;;
72573;SDS011;60603;52.548;13.420;2023-05-20T05:18:50;7.32;;;3.50;;
72573;SDS011;60603;52.548;13.420;2023-05-20T05:21:15;6.97;;;3.40;;
72573;SDS011;60603;52.548;13.420;2023-05-20T05:23:41;6.53;;;3.25;;
72573;SDS011;60603;52.548;13.420;2023-05-20T05:26:07;9.38;;;3.60;;
72573;SDS011;60603;52.548;13.420;2023-05-20T05:28:33;8.32;;;3.65;;
72573;SDS011;60603;52.548;13.420;2023-05-20T05:30:58;6.45;;;3.33;;
72573;SDS011;60603;52.548;13.420;2023-05-20T05:33:26;9.20;;;3.78;;
72573;SDS011;60603;52.548;13.420;2023-05-20T05:35:52;8.65;;;3.65;;
72573;SDS011;60603;52.548;13.420;2023-05-20T05:38:18;8.75;;;3.80;;
72573;SDS011;60603;52.548;13.420;2023-05-20T05:40:44;7.50;;;3.53;;
72573;SDS011;60603;52.548;13.420;2023-05-20T05:43:09;9.25;;;3.85;;
72573;SDS011;60603;52.548;13.420;2023-05-20T05:45:35;7.07;;;3.75;;
72573;SDS011;60603;52.548;13.420;2023-05-20T05:48:01;9.13;;;3.88;;
72573;SDS011;60603;52.548;13.420;2023-05-20T05:50:26;7.22;;;3.90;;
72573;SDS011;60603;52.548;13.420;2023-05-20T05:52:52;8.75;;;3.75;;
72573;SDS011;60603;52.548;13.420;2023-05-20T05:55:18;7.40;;;3.85;;
72573;SDS011;60603;52.548;13.420;2023-05-20T05:57:44;7.18;;;3.33;;
72573;SDS011;60603;52.548;13.420;2023-05-20T06:00:09;7.93;;;3.35;;
72573;SDS011;60603;52.548;13.420;2023-05-20T06:02:36;9.52;;;4.28;;
72573;SDS011;60603;52.548;13.420;2023-05-20T06:05:02;6.75;;;3.85;;
72573;SDS011;60603;52.548;13.420;2023-05-20T06:07:28;9.68;;;3.85;;
72573;SDS011;60603;52.548;13.420;2023-05-20T06:09:53;8.02;;;3.35;;
72573;SDS011;60603;52.548;13.420;2023-05-20T06:12:19;13.10;;;4.95;;
72573;SDS011;60603;52.548;13.420;2023-05-20T06:14:45;10.02;;;4.10;;
72573;SDS011;60603;52.548;13.420;2023-05-20T06:17:12;8.88;;;3.72;;
72573;SDS011;60603;52.548;13.420;2023-05-20T06:19:37;9.07;;;3.90;;
72573;SDS011;60603;52.548;13.420;2023-05-20T06:22:03;7.50;;;3.70;;
72573;SDS011;60603;52.548;13.420;2023-05-20T06:24:29;7.50;;;3.65;;
72573;SDS011;60603;52.548;13.420;2023-05-20T06:26:55;10.05;;;5.10;;
72573;SDS011;60603;52.548;13.420;2023-05-20T06:29:20;10.13;;;3.90;;
72573;SDS011;60603;52.548;13.420;2023-05-20T06:31:47;8.40;;;4.22;;
72573;SDS011;60603;52.548;13.420;2023-05-20T06:34:13;8.02;;;3.63;;
72573;SDS011;60603;52.548;13.420;2023-05-20T06:36:39;10.93;;;3.92;;
72573;SDS011;60603;52.548;13.420;2023-05-20T06:39:04;7.43;;;3.80;;
72573;SDS011;60603;52.548;13.420;2023-05-20T06:41:35;8.80;;;3.88;;
72573;SDS011;60603;52.548;13.420;2023-05-20T06:44:01;9.15;;;3.40;;
72573;SDS011;60603;52.548;13.420;2023-05-20T06:46:27;9.00;;;4.25;;
72573;SDS011;60603;52.548;13.420;2023-05-20T06:48:52;9.63;;;3.97;;
72573;SDS011;60603;52.548;13.420;2023-05-20T06:51:18;9.98;;;4.07;;
72573;SDS011;60603;52.548;13.420;2023-05-20T06:53:44;7.63;;;3.63;;
72573;SDS011;60603;52.548;13.420;2023-05-20T06:56:09;9.88;;;3.63;;
72573;SDS011;60603;52.548;13.420;2023-05-20T06:58:35;7.30;;;3.67;;
72573;SDS011;60603;52.548;13.420;2023-05-20T07:01:01;11.43;;;3.92;;
72573;SDS011;60603;52.548;13.420;2023-05-20T07:03:26;8.63;;;3.55;;
72573;SDS011;60603;52.548;13.420;2023-05-20T07:05:52;11.13;;;3.75;;
72573;SDS011;60603;52.548;13.420;2023-05-20T07:08:18;8.23;;;4.18;;
72573;SDS011;60603;52.548;13.420;2023-05-20T07:10:44;8.07;;;4.28;;
72573;SDS011;60603;52.548;13.420;2023-05-20T07:13:10;9.43;;;4.47;;
72573;SDS011;60603;52.548;13.420;2023-05-20T07:15:37;10.77;;;4.25;;
72573;SDS011;60603;52.548;13.420;2023-05-20T07:18:02;8.30;;;3.75;;
72573;SDS011;60603;52.548;13.420;2023-05-20T07:20:28;6.68;;;3.88;;
72573;SDS011;60603;52.548;13.420;2023-05-20T07:22:54;6.07;;;3.50;;
72573;SDS011;60603;52.548;13.420;2023-05-20T07:25:20;7.30;;;3.78;;
72573;SDS011;60603;52.548;13.420;2023-05-20T07:27:46;10.20;;;3.75;;
72573;SDS011;60603;52.548;13.420;2023-05-20T07:30:12;8.57;;;3.55;;
72573;SDS011;60603;52.548;13.420;2023-05-20T07:32:38;7.32;;;3.80;;
72573;SDS011;60603;52.548;13.420;2023-05-20T07:35:04;9.20;;;4.35;;
72573;SDS011;60603;52.548;13.420;2023-05-20T07:37:30;7.18;;;3.85;;
72573;SDS011;60603;52.548;13.420;2023-05-20T07:39:55;7.63;;;4.28;;
72573;SDS011;60603;52.548;13.420;2023-05-20T07:42:24;10.10;;;4.53;;
72573;SDS011;60603;52.548;13.420;2023-05-20T07:44:49;10.73;;;4.25;;
72573;SDS011;60603;52.548;13.420;2023-05-20T07:47:15;8.38;;;4.63;;
72573;SDS011;60603;52.548;13.420;2023-05-20T07:49:41;7.18;;;3.70;;
72573;SDS011;60603;52.548;13.420;2023-05-20T07:52:08;9.45;;;3.95;;
72573;SDS011;60603;52.548;13.420;2023-05-20T07:54:34;12.27;;;4.45;;
72573;SDS011;60603;52.548;13.420;2023-05-20T07:57:00;9.25;;;4.10;;
72573;SDS011;60603;52.548;13.420;2023-05-20T07:59:26;7.85;;;4.07;;
72573;SDS011;60603;52.548;13.420;2023-05-20T08:01:52;7.57;;;3.72;;
72573;SDS011;60603;52.548;13.420;2023-05-20T08:04:18;7.32;;;3.78;;
72573;SDS011;60603;52.548;13.420;2023-05-20T08:06:44;8.02;;;3.75;;
72573;SDS011;60603;52.548;13.420;2023-05-20T08:09:10;11.75;;;3.78;;
72573;SDS011;60603;52.548;13.420;2023-05-20T08:11:35;9.50;;;4.13;;
72573;SDS011;60603;52.548;13.420;2023-05-20T08:14:01;7.85;;;3.70;;
72573;SDS011;60603;52.548;13.420;2023-05-20T08:16:27;8.55;;;4.15;;
72573;SDS011;60603;52.548;13.420;2023-05-20T08:18:53;6.20;;;3.55;;
72573;SDS011;60603;52.548;13.420;2023-05-20T08:21:18;8.68;;;4.38;;
72573;SDS011;60603;52.548;13.420;2023-05-20T08:23:44;7.88;;;3.90;;
72573;SDS011;60603;52.548;13.420;2023-05-20T08:26:09;8.95;;;4.38;;
72573;SDS011;60603;52.548;13.420;2023-05-20T08:28:35;9.57;;;3.97;;
72573;SDS011;60603;52.548;13.420;2023-05-20T08:31:02;8.05;;;3.75;;
72573;SDS011;60603;52.548;13.420;2023-05-20T08:33:27;8.57;;;3.65;;
72573;SDS011;60603;52.548;13.420;2023-05-20T08:35:53;6.63;;;3.78;;
72573;SDS011;60603;52.548;13.420;2023-05-20T08:38:19;8.75;;;4.05;;
72573;SDS011;60603;52.548;13.420;2023-05-20T08:40:45;7.88;;;4.10;;
72573;SDS011;60603;52.548;13.420;2023-05-20T08:43:16;7.07;;;3.70;;
72573;SDS011;60603;52.548;13.420;2023-05-20T08:45:42;7.88;;;3.40;;
72573;SDS011;60603;52.548;13.420;2023-05-20T08:48:08;6.05;;;3.50;;
72573;SDS011;60603;52.548;13.420;2023-05-20T08:50:33;7.57;;;4.40;;
72573;SDS011;60603;52.548;13.420;2023-05-20T08:52:59;7.68;;;3.83;;
72573;SDS011;60603;52.548;13.420;2023-05-20T08:55:34;8.20;;;3.92;;
72573;SDS011;60603;52.548;13.420;2023-05-20T08:58:02;11.63;;;4.35;;
72573;SDS011;60603;52.548;13.420;2023-05-20T09:00:28;5.97;;;3.30;;
72573;SDS011;60603;52.548;13.420;2023-05-20T09:02:55;6.32;;;3.33;;
72573;SDS011;60603;52.548;13.420;2023-05-20T09:05:21;6.43;;;3.33;;
72573;SDS011;60603;52.548;13.420;2023-05-20T09:07:47;8.30;;;4.05;;
72573;SDS011;60603;52.548;13.420;2023-05-20T09:10:13;8.95;;;4.03;;
72573;SDS011;60603;52.548;13.420;2023-05-20T09:12:38;7.63;;;3.65;;
72573;SDS011;60603;52.548;13.420;2023-05-20T09:15:04;7.32;;;3.75;;
72573;SDS011;60603;52.548;13.420;2023-05-20T09:17:31;6.82;;;3.40;;
72573;SDS011;60603;52.548;13.420;2023-05-20T09:19:59;7.57;;;3.67;;
72573;SDS011;60603;52.548;13.420;2023-05-20T09:22:26;6.60;;;4.00;;
72573;SDS011;60603;52.548;13.420;2023-05-20T09:24:52;7.28;;;3.90;;
72573;SDS011;60603;52.548;13.420;2023-05-20T09:27:18;7.80;;;4.03;;
72573;SDS011;60603;52.548;13.420;2023-05-20T09:29:46;7.70;;;4.13;;
72573;SDS011;60603;52.548;13.420;2023-05-20T09:32:16;9.45;;;3.50;;
72573;SDS011;60603;52.548;13.420;2023-05-20T09:34:42;9.07;;;3.70;;
72573;SDS011;60603;52.548;13.420;2023-05-20T09:37:10;7.20;;;4.00;;
72573;SDS011;60603;52.548;13.420;2023-05-20T09:39:43;10.15;;;4.05;;
72573;SDS011;60603;52.548;13.420;2023-05-20T09:42:21;8.27;;;4.00;;
72573;SDS011;60603;52.548;13.420;2023-05-20T09:44:54;8.73;;;4.53;;
72573;SDS011;60603;52.548;13.420;2023-05-20T09:47:22;11.23;;;4.30;;
72573;SDS011;60603;52.548;13.420;2023-05-20T09:49:48;8.38;;;4.50;;
72573;SDS011;60603;52.548;13.420;2023-05-20T09:52:14;10.63;;;4.78;;
72573;SDS011;60603;52.548;13.420;2023-05-20T09:54:43;10.07;;;4.72;;
72573;SDS011;60603;52.548;13.420;2023-05-20T09:57:09;8.70;;;4.45;;
72573;SDS011;60603;52.548;13.420;2023-05-20T09:59:36;10.93;;;4.85;;
72573;SDS011;60603;52.548;13.420;2023-05-20T10:02:02;8.82;;;4.80;;
72573;SDS011;60603;52.548;13.420;2023-05-20T10:04:27;9.30;;;4.78;;
72573;SDS011;60603;52.548;13.420;2023-05-20T10:09:47;9.35;;;5.60;;
72573;SDS011;60603;52.548;13.420;2023-05-20T10:12:32;10.63;;;5.05;;
72573;SDS011;60603;52.548;13.420;2023-05-20T10:15:05;11.00;;;5.07;;
72573;SDS011;60603;52.548;13.420;2023-05-20T10:17:51;10.20;;;5.15;;
72573;SDS011;60603;52.548;13.420;2023-05-20T10:20:27;9.98;;;5.68;;
72573;SDS011;60603;52.548;13.420;2023-05-20T10:22:54;8.85;;;4.75;;
72573;SDS011;60603;52.548;13.420;2023-05-20T10:25:25;9.32;;;4.90;;
72573;SDS011;60603;52.548;13.420;2023-05-20T10:28:02;10.82;;;5.50;;
72573;SDS011;60603;52.548;13.420;2023-05-20T10:30:28;9.15;;;4.32;;
72573;SDS011;60603;52.548;13.420;2023-05-20T10:32:55;8.70;;;5.05;;
72573;SDS011;60603;52.548;13.420;2023-05-20T10:35:25;11.18;;;5.38;;
72573;SDS011;60603;52.548;13.420;2023-05-20T10:37:51;13.15;;;4.63;;
72573;SDS011;60603;52.548;13.420;2023-05-20T10:40:18;9.32;;;5.10;;
72573;SDS011;60603;52.548;13.420;2023-05-20T10:42:45;10.35;;;4.97;;
72573;SDS011;60603;52.548;13.420;2023-05-20T10:45:23;9.15;;;5.07;;
72573;SDS011;60603;52.548;13.420;2023-05-20T10:47:53;11.50;;;5.82;;
72573;SDS011;60603;52.548;13.420;2023-05-20T10:50:36;10.70;;;5.43;;
72573;SDS011;60603;52.548;13.420;2023-05-20T10:53:05;8.07;;;4.65;;
72573;SDS011;60603;52.548;13.420;2023-05-20T10:55:38;9.23;;;5.22;;
72573;SDS011;60603;52.548;13.420;2023-05-20T10:58:04;9.75;;;5.10;;
72573;SDS011;60603;52.548;13.420;2023-05-20T11:00:33;10.38;;;5.20;;
72573;SDS011;60603;52.548;13.420;2023-05-20T11:03:00;11.40;;;5.55;;
72573;SDS011;60603;52.548;13.420;2023-05-20T11:05:26;9.45;;;4.80;;
72573;SDS011;60603;52.548;13.420;2023-05-20T11:08:02;10.20;;;5.07;;
72573;SDS011;60603;52.548;13.420;2023-05-20T11:12:56;11.20;;;5.55;;
72573;SDS011;60603;52.548;13.420;2023-05-20T11:15:22;12.65;;;5.53;;
72573;SDS011;60603;52.548;13.420;2023-05-20T11:17:56;9.75;;;5.45;;
72573;SDS011;60603;52.548;13.420;2023-05-20T11:20:25;12.90;;;5.60;;
72573;SDS011;60603;52.548;13.420;2023-05-20T11:22:52;9.60;;;4.93;;
72573;SDS011;60603;52.548;13.420;2023-05-20T11:25:18;9.55;;;5.38;;
72573;SDS011;60603;52.548;13.420;2023-05-20T11:27:45;10.43;;;5.72;;
72573;SDS011;60603;52.548;13.420;2023-05-20T11:30:10;10.73;;;5.22;;
72573;SDS011;60603;52.548;13.420;2023-05-20T11:32:43;9.85;;;5.78;;
72573;SDS011;60603;52.548;13.420;2023-05-20T11:35:21;10.93;;;5.32;;
72573;SDS011;60603;52.548;13.420;2023-05-20T11:37:55;10.73;;;4.93;;
72573;SDS011;60603;52.548;13.420;2023-05-20T11:40:25;7.97;;;5.03;;
72573;SDS011;60603;52.548;13.420;2023-05-20T11:42:54;9.85;;;5.40;;
72573;SDS011;60603;52.548;13.420;2023-05-20T11:45:21;7.75;;;4.78;;
72573;SDS011;60603;52.548;13.420;2023-05-20T11:47:57;9.65;;;5.22;;
72573;SDS011;60603;52.548;13.420;2023-05-20T11:50:24;12.35;;;6.20;;
72573;SDS011;60603;52.548;13.420;2023-05-20T11:52:59;17.33;;;5.05;;
72573;SDS011;60603;52.548;13.420;2023-05-20T11:55:25;11.82;;;5.32;;
72573;SDS011;60603;52.548;13.420;2023-05-20T11:57:53;9.60;;;5.20;;
72573;SDS011;60603;52.548;13.420;2023-05-20T12:00:19;10.40;;;5.78;;
72573;SDS011;60603;52.548;13.420;2023-05-20T12:02:45;9.77;;;5.32;;
72573;SDS011;60603;52.548;13.420;2023-05-20T12:05:11;11.30;;;6.35;;
72573;SDS011;60603;52.548;13.420;2023-05-20T12:07:38;9.85;;;5.68;;
72573;SDS011;60603;52.548;13.420;2023-05-20T12:10:03;9.55;;;5.43;;
72573;SDS011;60603;52.548;13.420;2023-05-20T12:12:30;11.00;;;6.25;;
72573;SDS011;60603;52.548;13.420;2023-05-20T12:14:55;10.25;;;5.75;;
72573;SDS011;60603;52.548;13.420;2023-05-20T12:17:21;9.77;;;5.90;;
72573;SDS011;60603;52.548;13.420;2023-05-20T12:19:47;12.85;;;5.60;;
72573;SDS011;60603;52.548;13.420;2023-05-20T12:22:13;15.60;;;6.00;;
72573;SDS011;60603;52.548;13.420;2023-05-20T12:24:38;10.60;;;6.38;;
72573;SDS011;60603;52.548;13.420;2023-05-20T12:27:04;10.65;;;5.70;;
72573;SDS011;60603;52.548;13.420;2023-05-20T12:29:30;14.10;;;6.30;;
72573;SDS011;60603;52.548;13.420;2023-05-20T12:31:57;10.05;;;5.90;;
72573;SDS011;60603;52.548;13.420;2023-05-20T12:34:22;11.30;;;6.45;;
72573;SDS011;60603;52.548;13.420;2023-05-20T12:36:56;11.70;;;5.80;;
72573;SDS011;60603;52.548;13.420;2023-05-20T12:39:21;11.82;;;6.15;;
72573;SDS011;60603;52.548;13.420;2023-05-20T12:41:47;10.50;;;6.20;;
72573;SDS011;60603;52.548;13.420;2023-05-20T12:44:13;11.90;;;6.05;;
72573;SDS011;60603;52.548;13.420;2023-05-20T12:46:38;10.75;;;6.20;;
72573;SDS011;60603;52.548;13.420;2023-05-20T12:49:04;12.65;;;5.82;;
72573;SDS011;60603;52.548;13.420;2023-05-20T12:51:30;10.20;;;5.65;;
72573;SDS011;60603;52.548;13.420;2023-05-20T12:53:55;9.88;;;5.85;;
72573;SDS011;60603;52.548;13.420;2023-05-20T12:56:21;11.57;;;5.78;;
72573;SDS011;60603;52.548;13.420;2023-05-20T12:58:47;10.35;;;5.70;;
72573;SDS011;60603;52.548;13.420;2023-05-20T13:01:16;10.75;;;5.68;;
72573;SDS011;60603;52.548;13.420;2023-05-20T13:03:41;14.52;;;5.90;;
72573;SDS011;60603;52.548;13.420;2023-05-20T13:06:07;13.82;;;5.63;;
72573;SDS011;60603;52.548;13.420;2023-05-20T13:08:33;10.55;;;5.97;;
72573;SDS011;60603;52.548;13.420;2023-05-20T13:10:59;10.00;;;6.07;;
72573;SDS011;60603;52.548;13.420;2023-05-20T13:13:24;9.52;;;5.57;;
72573;SDS011;60603;52.548;13.420;2023-05-20T13:15:50;13.35;;;6.20;;
72573;SDS011;60603;52.548;13.420;2023-05-20T13:18:16;11.93;;;6.80;;
72573;SDS011;60603;52.548;13.420;2023-05-20T13:20:42;10.45;;;5.72;;
72573;SDS011;60603;52.548;13.420;2023-05-20T13:23:08;8.15;;;5.60;;
72573;SDS011;60603;52.548;13.420;2023-05-20T13:25:34;11.43;;;5.63;;
72573;SDS011;60603;52.548;13.420;2023-05-20T13:28:01;11.63;;;5.30;;
72573;SDS011;60603;52.548;13.420;2023-05-20T13:30:27;10.10;;;5.75;;
72573;SDS011;60603;52.548;13.420;2023-05-20T13:32:53;10.05;;;5.50;;
72573;SDS011;60603;52.548;13.420;2023-05-20T13:35:19;11.20;;;5.90;;
72573;SDS011;60603;52.548;13.420;2023-05-20T13:37:45;10.95;;;5.43;;
72573;SDS011;60603;52.548;13.420;2023-05-20T13:40:11;10.35;;;4.88;;
72573;SDS011;60603;52.548;13.420;2023-05-20T13:42:37;11.50;;;5.50;;
72573;SDS011;60603;52.548;13.420;2023-05-20T13:45:03;10.48;;;5.18;;
72573;SDS011;60603;52.548;13.420;2023-05-20T13:47:29;10.10;;;5.05;;
72573;SDS011;60603;52.548;13.420;2023-05-20T13:49:54;11.95;;;5.15;;
72573;SDS011;60603;52.548;13.420;2023-05-20T13:52:20;10.52;;;4.75;;
72573;SDS011;60603;52.548;13.420;2023-05-20T13:54:46;9.15;;;4.85;;
72573;SDS011;60603;52.548;13.420;2023-05-20T13:57:13;10.35;;;4.90;;
72573;SDS011;60603;52.548;13.420;2023-05-20T13:59:39;9.45;;;5.60;;
72573;SDS011;60603;52.548;13.420;2023-05-20T14:02:05;14.27;;;5.57;;
72573;SDS011;60603;52.548;13.420;2023-05-20T14:04:31;11.27;;;5.22;;
72573;SDS011;60603;52.548;13.420;2023-05-20T14:07:02;9.10;;;5.40;;
72573;SDS011;60603;52.548;13.420;2023-05-20T14:09:29;8.75;;;5.30;;
72573;SDS011;60603;52.548;13.420;2023-05-20T14:11:55;12.88;;;5.32;;
72573;SDS011;60603;52.548;13.420;2023-05-20T14:14:21;10.85;;;5.63;;
72573;SDS011;60603;52.548;13.420;2023-05-20T14:16:46;11.82;;;5.05;;
72573;SDS011;60603;52.548;13.420;2023-05-20T14:19:12;11.65;;;5.28;;
72573;SDS011;60603;52.548;13.420;2023-05-20T14:21:38;10.48;;;5.32;;
72573;SDS011;60603;52.548;13.420;2023-05-20T14:24:04;10.15;;;4.50;;
72573;SDS011;60603;52.548;13.420;2023-05-20T14:26:31;8.02;;;4.93;;
72573;SDS011;60603;52.548;13.420;2023-05-20T14:28:57;12.65;;;4.97;;
72573;SDS011;60603;52.548;13.420;2023-05-20T14:31:23;9.73;;;5.20;;
72573;SDS011;60603;52.548;13.420;2023-05-20T14:33:48;9.30;;;5.03;;